Time;durP1;ratioP1;P1;durP2;ratioP2;P2;SDS_P1;SDS_P2;PMS_P1;PMS_P2;Temp;Humidity;BMP_temperature;BMP_pressure;BME280_temperature;BME280_humidity;BME280_pressure;Samples;Min_cycle;Max_cycle;Signal;HPM_P1;HPM_P2
2023/03/14 00:00:29;;;;;;;33.72;19.58;;;6.00;84.60;;;;;;5023072;28;20045;-73
2023/03/14 00:02:56;;;;;;;30.90;18.85;;;6.10;84.70;;;;;;5028325;28;20477;-71
2023/03/14 00:05:24;;;;;;;28.75;18.17;;;6.20;83.90;;;;;;5015446;28;20045;-73
2023/03/14 00:07:51;;;;;;;27.55;17.85;;;5.90;85.10;;;;;;5023300;28;20069;-73
2023/03/14 00:10:18;;;;;;;27.90;17.52;;;5.90;85.00;;;;;;5017658;28;20046;-74
2023/03/14 00:12:46;;;;;;;24.27;15.75;;;6.00;84.90;;;;;;5007356;28;20517;-73
2023/03/14 00:15:13;;;;;;;23.63;15.45;;;6.00;84.10;;;;;;5024068;28;20427;-75
2023/03/14 00:17:43;;;;;;;22.42;15.55;;;6.00;83.10;;;;;;5023060;28;20041;-73
2023/03/14 00:20:11;;;;;;;22.40;14.40;;;6.10;82.90;;;;;;5010340;28;20664;-73
2023/03/14 00:22:40;;;;;;;25.85;15.45;;;6.20;82.80;;;;;;5008236;28;20049;-74
2023/03/14 00:25:09;;;;;;;23.95;15.93;;;6.10;83.20;;;;;;4996473;28;20417;-70
2023/03/14 00:27:37;;;;;;;22.92;14.85;;;6.10;83.70;;;;;;5070851;23;20039;-73
2023/03/14 00:30:07;;;;;;;26.52;16.35;;;6.10;84.30;;;;;;5046551;28;20041;-73
2023/03/14 00:32:35;;;;;;;25.38;16.17;;;5.80;85.20;;;;;;5049655;28;20050;-72
2023/03/14 00:35:04;;;;;;;29.02;15.88;;;6.00;84.90;;;;;;5066340;28;20393;-71
2023/03/14 00:37:32;;;;;;;29.27;16.25;;;6.10;85.20;;;;;;5060892;28;20067;-71
2023/03/14 00:40:00;;;;;;;23.30;15.55;;;6.00;85.20;;;;;;5070562;28;20473;-71
2023/03/14 00:42:28;;;;;;;22.95;15.93;;;5.50;86.70;;;;;;5081518;28;20052;-70
2023/03/14 00:44:55;;;;;;;28.52;15.70;;;5.20;88.40;;;;;;5051993;28;20037;-74
2023/03/14 00:47:23;;;;;;;26.80;17.27;;;5.30;88.50;;;;;;5053018;28;20051;-73
2023/03/14 00:49:50;;;;;;;24.75;15.52;;;5.60;87.70;;;;;;5067340;28;20041;-73
2023/03/14 00:52:17;;;;;;;22.73;15.82;;;5.80;86.50;;;;;;5033468;28;20474;-74
2023/03/14 00:54:45;;;;;;;24.50;16.27;;;5.90;87.00;;;;;;5069770;28;20112;-71
2023/03/14 00:57:12;;;;;;;26.15;15.48;;;6.00;86.50;;;;;;5036227;28;20063;-74
2023/03/14 00:59:39;;;;;;;29.73;16.33;;;5.70;86.20;;;;;;5049659;28;20044;-73
2023/03/14 01:02:07;;;;;;;23.33;15.35;;;5.60;88.20;;;;;;5054643;28;20052;-74
2023/03/14 01:04:34;;;;;;;24.02;14.95;;;5.70;89.40;;;;;;5049080;28;20051;-71
2023/03/14 01:07:01;;;;;;;26.25;15.05;;;5.90;89.50;;;;;;5066324;28;20048;-73
2023/03/14 01:09:29;;;;;;;21.88;15.25;;;6.00;89.50;;;;;;5067065;28;20041;-75
2023/03/14 01:11:56;;;;;;;25.70;15.48;;;5.90;88.50;;;;;;5069156;28;20043;-74
2023/03/14 01:14:23;;;;;;;22.98;15.02;;;5.90;89.10;;;;;;5083068;28;20044;-74
2023/03/14 01:16:51;;;;;;;24.48;15.55;;;5.90;87.80;;;;;;5067980;28;20072;-73
2023/03/14 01:19:18;;;;;;;24.50;16.08;;;6.00;87.50;;;;;;5062801;28;20029;-73
2023/03/14 01:21:46;;;;;;;23.65;15.63;;;6.00;87.60;;;;;;5082171;28;20059;-74
2023/03/14 01:24:13;;;;;;;21.65;14.93;;;6.00;87.50;;;;;;5061787;28;20510;-73
2023/03/14 01:26:41;;;;;;;28.80;15.95;;;6.10;87.30;;;;;;5035591;28;20582;-73
2023/03/14 01:29:09;;;;;;;25.45;15.48;;;6.00;87.70;;;;;;5058831;28;20098;-73
2023/03/14 01:31:37;;;;;;;26.17;16.27;;;5.90;88.70;;;;;;5034676;28;20040;-72
2023/03/14 01:34:05;;;;;;;27.90;15.30;;;5.90;89.70;;;;;;5052869;28;20120;-72
2023/03/14 01:36:34;;;;;;;23.55;14.80;;;5.90;89.80;;;;;;5033949;28;20056;-73
2023/03/14 01:39:02;;;;;;;24.63;14.90;;;5.70;90.40;;;;;;5044834;28;20037;-71
2023/03/14 01:41:32;;;;;;;22.08;14.18;;;5.70;90.60;;;;;;5062246;28;20419;-73
2023/03/14 01:44:00;;;;;;;26.05;16.20;;;5.80;90.70;;;;;;5039995;28;20072;-73
2023/03/14 01:46:42;;;;;;;26.73;16.08;;;5.40;91.60;;;;;;5026028;28;20044;-73
2023/03/14 01:49:12;;;;;;;26.27;15.57;;;5.40;92.30;;;;;;5038446;28;20053;-73
2023/03/14 01:52:12;;;;;;;23.55;16.13;;;5.20;93.00;;;;;;5057025;28;20199;-74
2023/03/14 01:54:42;;;;;;;27.75;16.48;;;5.30;93.50;;;;;;5048575;28;20049;-73
2023/03/14 01:57:12;;;;;;;;;;;5.10;93.70;;;;;;5046828;28;20048;-75
2023/03/14 01:59:43;;;;;;;29.00;16.15;;;5.20;94.30;;;;;;5056615;28;19925;-71
2023/03/14 02:02:12;;;;;;;26.88;15.48;;;5.40;94.50;;;;;;5050371;28;20416;-70
2023/03/14 02:04:41;;;;;;;30.88;15.43;;;5.30;94.50;;;;;;5031281;28;20049;-75
2023/03/14 02:07:25;;;;;;;24.70;15.82;;;5.40;94.60;;;;;;5049669;28;20393;-74
2023/03/14 02:09:54;;;;;;;27.38;16.23;;;5.40;95.00;;;;;;5043961;28;20048;-72
2023/03/14 02:12:22;;;;;;;24.83;16.42;;;5.50;95.20;;;;;;5056410;28;20045;-73
2023/03/14 02:14:51;;;;;;;25.63;16.15;;;5.40;94.90;;;;;;5060386;28;20662;-73
2023/03/14 02:17:20;;;;;;;25.95;16.13;;;5.40;94.90;;;;;;5056086;28;20446;-71
2023/03/14 02:19:47;;;;;;;24.33;16.77;;;5.40;94.90;;;;;;5050014;28;20033;-74
2023/03/14 02:22:17;;;;;;;24.27;15.60;;;5.40;94.90;;;;;;5038986;28;20137;-71
2023/03/14 02:24:50;;;;;;;25.33;15.75;;;5.40;95.60;;;;;;5055549;28;20388;-71
2023/03/14 02:27:20;;;;;;;25.60;14.60;;;5.40;95.40;;;;;;5056967;28;20045;-73
2023/03/14 02:30:06;;;;;;;31.30;16.48;;;5.20;95.40;;;;;;5076003;22;20041;-71
2023/03/14 02:32:38;;;;;;;26.58;15.52;;;5.10;95.50;;;;;;5067773;28;20032;-73
2023/03/14 02:35:11;;;;;;;26.42;16.10;;;5.00;95.00;;;;;;5071619;28;20037;-73
2023/03/14 02:37:45;;;;;;;23.83;15.05;;;5.00;95.10;;;;;;5068537;28;20048;-74
2023/03/14 02:40:13;;;;;;;27.92;15.50;;;5.10;95.30;;;;;;5036149;28;20051;-74
2023/03/14 02:42:41;;;;;;;28.40;14.52;;;5.20;95.30;;;;;;5053935;28;20436;-72
2023/03/14 02:45:08;;;;;;;23.60;15.15;;;4.90;95.80;;;;;;5066973;28;20085;-72
2023/03/14 02:47:41;;;;;;;32.05;18.77;;;4.90;96.50;;;;;;5036613;28;20051;-71
2023/03/14 02:50:22;;;;;;;39.92;21.67;;;4.80;97.50;;;;;;5050982;28;20470;-72
2023/03/14 02:52:49;;;;;;;35.38;21.27;;;4.70;98.90;;;;;;5072943;28;20404;-75
2023/03/14 02:55:23;;;;;;;40.30;21.58;;;4.70;99.80;;;;;;5057221;28;20039;-75
2023/03/14 02:57:51;;;;;;;33.22;21.80;;;4.70;99.90;;;;;;5073627;28;20051;-72
2023/03/14 03:00:19;;;;;;;36.08;21.75;;;4.70;99.90;;;;;;5059798;28;20040;-71
2023/03/14 03:02:49;;;;;;;38.33;22.10;;;4.80;99.90;;;;;;5052779;28;20049;-73
2023/03/14 03:05:16;;;;;;;38.37;21.27;;;4.60;99.90;;;;;;5060161;28;20044;-72
2023/03/14 03:07:43;;;;;;;34.17;21.08;;;4.50;99.90;;;;;;5060529;28;20494;-71
2023/03/14 03:10:11;;;;;;;34.33;20.88;;;4.70;99.90;;;;;;5072675;28;20491;-72
2023/03/14 03:12:39;;;;;;;40.38;22.63;;;4.70;99.90;;;;;;5054006;28;20051;-69
2023/03/14 03:15:07;;;;;;;36.25;20.50;;;4.80;99.90;;;;;;5038841;28;20507;-73
2023/03/14 03:17:34;;;;;;;33.95;20.63;;;5.00;99.90;;;;;;5051862;28;20045;-73
2023/03/14 03:20:04;;;;;;;36.33;20.95;;;4.90;99.90;;;;;;5061939;28;20033;-73
2023/03/14 03:22:32;;;;;;;31.25;19.58;;;4.80;99.90;;;;;;5063945;28;20041;-73
2023/03/14 03:24:59;;;;;;;34.88;20.13;;;4.70;99.90;;;;;;5054311;28;20079;-73
2023/03/14 03:27:29;;;;;;;31.88;20.17;;;4.60;99.90;;;;;;5038406;28;20399;-73
2023/03/14 03:29:57;;;;;;;30.73;18.40;;;4.70;99.90;;;;;;5040841;28;20519;-75
2023/03/14 03:32:24;;;;;;;28.60;17.75;;;4.80;99.90;;;;;;5054630;28;20045;-74
2023/03/14 03:34:53;;;;;;;26.90;16.52;;;4.60;99.90;;;;;;5038060;28;20151;-74
2023/03/14 03:37:20;;;;;;;30.95;18.63;;;4.40;99.90;;;;;;5048402;28;20064;-72
2023/03/14 03:39:50;;;;;;;31.65;18.20;;;4.40;99.90;;;;;;5062906;28;20067;-74
2023/03/14 03:42:18;;;;;;;21.60;16.15;;;4.40;99.90;;;;;;5052615;28;20397;-73
2023/03/14 03:44:47;;;;;;;25.67;17.05;;;4.60;99.90;;;;;;5058623;28;20450;-72
2023/03/14 03:47:14;;;;;;;30.38;17.73;;;4.70;99.90;;;;;;5070878;28;20040;-74
2023/03/14 03:49:42;;;;;;;26.77;17.20;;;4.60;99.90;;;;;;5071814;28;20033;-74
2023/03/14 03:52:09;;;;;;;24.73;17.75;;;4.40;99.90;;;;;;5054137;28;20037;-74
2023/03/14 03:54:36;;;;;;;25.90;16.90;;;4.20;99.90;;;;;;5054080;28;20041;-74
2023/03/14 03:57:04;;;;;;;24.73;16.50;;;4.10;99.90;;;;;;5053207;28;20044;-74
2023/03/14 03:59:31;;;;;;;22.42;15.60;;;4.00;99.90;;;;;;5072065;28;20040;-74
2023/03/14 04:01:59;;;;;;;31.77;16.17;;;4.10;99.90;;;;;;5053933;28;20465;-74
2023/03/14 04:04:26;;;;;;;24.15;15.00;;;4.10;99.90;;;;;;5053065;28;20045;-74
2023/03/14 04:06:54;;;;;;;23.05;14.52;;;4.00;99.90;;;;;;5053789;28;20400;-75
2023/03/14 04:09:21;;;;;;;23.40;15.00;;;4.20;99.90;;;;;;5037603;28;20059;-73
2023/03/14 04:11:48;;;;;;;23.40;15.80;;;4.10;99.90;;;;;;5071436;28;20040;-74
2023/03/14 04:14:19;;;;;;;25.23;15.90;;;4.10;99.90;;;;;;5071992;28;20045;-74
2023/03/14 04:16:46;;;;;;;27.35;16.55;;;4.10;99.90;;;;;;5037429;28;20045;-72
2023/03/14 04:19:14;;;;;;;26.15;16.20;;;4.10;99.90;;;;;;5052339;28;20041;-74
2023/03/14 04:21:44;;;;;;;24.25;15.63;;;4.10;99.90;;;;;;5061548;28;20052;-71
2023/03/14 04:24:11;;;;;;;27.77;15.90;;;4.20;99.90;;;;;;5034322;28;20167;-74
2023/03/14 04:26:39;;;;;;;27.58;15.45;;;4.00;99.90;;;;;;5050812;28;20052;-74
2023/03/14 04:29:06;;;;;;;26.95;16.75;;;4.10;99.90;;;;;;5037098;28;20638;-73
2023/03/14 04:31:33;;;;;;;25.60;15.70;;;4.20;99.90;;;;;;5053507;28;20060;-73
2023/03/14 04:34:01;;;;;;;19.80;14.27;;;4.10;99.90;;;;;;5054418;28;20036;-74
2023/03/14 04:36:28;;;;;;;20.45;13.25;;;3.90;99.90;;;;;;5045323;28;20053;-74
2023/03/14 04:38:55;;;;;;;20.60;12.75;;;3.90;99.90;;;;;;5071277;28;20048;-72
2023/03/14 04:41:23;;;;;;;20.00;12.65;;;3.90;99.90;;;;;;5053850;28;20076;-74
2023/03/14 04:43:50;;;;;;;18.48;11.18;;;3.90;99.90;;;;;;5053691;28;20047;-71
2023/03/14 04:46:18;;;;;;;15.40;11.20;;;4.00;99.90;;;;;;5053348;28;20131;-74
2023/03/14 04:48:45;;;;;;;17.67;10.70;;;4.10;99.90;;;;;;5052661;28;20064;-71
2023/03/14 04:51:13;;;;;;;19.90;12.10;;;4.10;99.90;;;;;;5052622;28;20499;-72
2023/03/14 04:53:43;;;;;;;14.30;10.70;;;3.90;99.90;;;;;;5052352;28;20078;-74
2023/03/14 04:56:12;;;;;;;20.27;12.15;;;4.00;99.90;;;;;;5041310;28;20049;-72
2023/03/14 04:58:40;;;;;;;20.45;12.65;;;4.10;99.90;;;;;;5052017;28;20037;-75
2023/03/14 05:01:07;;;;;;;17.60;13.05;;;4.00;99.90;;;;;;5052918;28;20048;-74
2023/03/14 05:03:37;;;;;;;19.17;13.13;;;4.00;99.90;;;;;;5063935;28;20036;-74
2023/03/14 05:06:05;;;;;;;20.55;12.23;;;4.00;99.90;;;;;;5046604;28;20063;-74
2023/03/14 05:08:32;;;;;;;18.95;12.52;;;3.80;99.90;;;;;;5058755;28;20036;-74
2023/03/14 05:10:59;;;;;;;18.23;12.77;;;3.70;99.90;;;;;;5070293;28;20048;-73
2023/03/14 05:13:27;;;;;;;21.63;13.60;;;3.90;99.90;;;;;;5070877;28;20037;-73
2023/03/14 05:16:11;;;;;;;24.85;14.32;;;4.00;99.90;;;;;;5051636;28;20075;-75
2023/03/14 05:18:39;;;;;;;22.80;14.93;;;4.20;99.90;;;;;;5017604;28;20057;-75
2023/03/14 05:21:06;;;;;;;23.70;13.93;;;4.20;99.90;;;;;;5050592;28;20048;-74
2023/03/14 05:23:36;;;;;;;20.75;13.57;;;4.30;99.90;;;;;;5038131;28;20392;-75
2023/03/14 05:26:03;;;;;;;22.67;13.68;;;4.20;99.90;;;;;;5024166;28;20400;-73
2023/03/14 05:28:33;;;;;;;25.70;14.68;;;4.30;99.90;;;;;;5062833;28;20049;-73
2023/03/14 05:31:00;;;;;;;23.52;15.45;;;4.40;99.90;;;;;;5045951;28;20408;-74
2023/03/14 05:33:28;;;;;;;28.27;16.85;;;4.30;99.90;;;;;;5064525;28;20309;-74
2023/03/14 05:35:55;;;;;;;25.95;15.75;;;4.40;99.90;;;;;;5059961;28;20043;-72
2023/03/14 05:38:23;;;;;;;21.58;14.35;;;4.60;99.90;;;;;;5040486;28;20386;-73
2023/03/14 05:40:50;;;;;;;21.45;14.23;;;4.70;99.90;;;;;;5025820;28;20396;-73
2023/03/14 05:43:18;;;;;;;21.95;13.93;;;4.60;99.90;;;;;;5022227;28;20139;-75
2023/03/14 05:45:45;;;;;;;23.80;13.88;;;4.20;99.90;;;;;;5038667;28;20044;-74
2023/03/14 05:48:12;;;;;;;26.42;14.63;;;4.00;99.90;;;;;;5054484;28;20053;-74
2023/03/14 05:50:40;;;;;;;29.30;14.27;;;4.00;99.90;;;;;;5029722;28;20483;-72
2023/03/14 05:53:07;;;;;;;24.45;14.55;;;4.20;99.90;;;;;;5026975;28;20424;-74
2023/03/14 05:55:34;;;;;;;19.95;14.50;;;3.90;99.90;;;;;;5049642;28;20067;-74
2023/03/14 05:58:02;;;;;;;24.83;14.38;;;3.90;99.90;;;;;;5047318;28;20123;-71
2023/03/14 06:00:29;;;;;;;22.02;13.77;;;4.20;99.90;;;;;;5057496;28;20037;-74
2023/03/14 06:02:57;;;;;;;24.00;13.27;;;4.50;99.90;;;;;;5037056;28;20083;-73
2023/03/14 06:05:24;;;;;;;63.63;36.40;;;4.70;99.90;;;;;;5032545;28;20048;-74
2023/03/14 06:07:51;;;;;;;65.78;37.13;;;4.70;99.90;;;;;;5055587;28;20052;-71
2023/03/14 06:10:19;;;;;;;161.05;82.05;;;4.90;99.90;;;;;;5068776;28;20048;-70
2023/03/14 06:12:46;;;;;;;89.13;53.30;;;5.30;99.90;;;;;;5052092;28;20420;-72
2023/03/14 06:15:13;;;;;;;44.67;29.30;;;5.30;99.90;;;;;;5034616;28;20507;-71
2023/03/14 06:17:41;;;;;;;30.95;18.13;;;5.30;99.90;;;;;;5069855;28;20049;-73
2023/03/14 06:20:09;;;;;;;23.25;15.35;;;5.40;99.90;;;;;;5067142;28;20036;-73
2023/03/14 06:22:36;;;;;;;21.83;14.95;;;5.30;99.90;;;;;;5050018;28;20066;-71
2023/03/14 06:25:05;;;;;;;23.75;16.23;;;5.20;99.90;;;;;;5032050;28;20077;-71
2023/03/14 06:27:33;;;;;;;28.85;16.02;;;5.40;99.90;;;;;;5041819;28;20041;-70
2023/03/14 06:30:00;;;;;;;23.73;15.15;;;5.50;99.90;;;;;;5016960;28;20126;-70
2023/03/14 06:32:27;;;;;;;21.20;14.32;;;5.60;99.90;;;;;;5045082;28;20098;-72
2023/03/14 06:34:57;;;;;;;21.92;13.70;;;5.60;99.50;;;;;;5036004;28;20036;-70
2023/03/14 06:37:28;;;;;;;23.42;13.13;;;5.60;98.60;;;;;;5067332;28;20061;-73
2023/03/14 06:39:55;;;;;;;24.48;14.00;;;5.60;98.80;;;;;;5031224;28;20455;-71
2023/03/14 06:42:23;;;;;;;19.02;13.15;;;5.70;98.70;;;;;;5040957;23;20056;-77
2023/03/14 06:44:50;;;;;;;127.72;65.20;;;5.80;98.60;;;;;;5070964;28;20145;-74
2023/03/14 06:47:17;;;;;;;87.72;47.28;;;6.00;99.10;;;;;;5053143;28;20418;-73
2023/03/14 06:49:45;;;;;;;48.95;30.42;;;5.90;99.40;;;;;;5046730;28;20040;-75
2023/03/14 06:52:12;;;;;;;32.20;19.02;;;5.90;98.70;;;;;;5055406;28;20048;-73
2023/03/14 06:54:40;;;;;;;30.02;16.48;;;5.90;98.80;;;;;;5034486;28;20049;-74
2023/03/14 06:57:07;;;;;;;24.88;15.85;;;5.90;98.50;;;;;;5051084;28;20049;-75
2023/03/14 06:59:34;;;;;;;26.50;17.17;;;6.00;98.60;;;;;;5067491;28;20045;-73
2023/03/14 07:02:01;;;;;;;29.38;15.95;;;6.10;98.50;;;;;;5048234;28;20528;-74
2023/03/14 07:04:29;;;;;;;35.40;17.40;;;6.20;98.60;;;;;;5070051;28;20036;-73
2023/03/14 07:06:56;;;;;;;34.17;19.83;;;6.40;98.00;;;;;;5031136;28;20244;-72
2023/03/14 07:09:24;;;;;;;26.38;17.70;;;6.50;98.00;;;;;;5063788;28;20035;-74
2023/03/14 07:11:51;;;;;;;30.30;16.75;;;6.20;97.80;;;;;;5066703;28;20044;-73
2023/03/14 07:14:18;;;;;;;25.40;16.10;;;6.10;98.00;;;;;;5067697;28;20033;-73
2023/03/14 07:16:47;;;;;;;27.23;16.45;;;6.20;98.00;;;;;;5069696;28;20044;-74
2023/03/14 07:19:15;;;;;;;31.10;17.08;;;6.40;97.80;;;;;;5050070;28;20504;-75
2023/03/14 07:21:42;;;;;;;26.60;16.40;;;6.40;97.40;;;;;;5072980;28;20424;-74
2023/03/14 07:24:09;;;;;;;31.67;16.83;;;6.30;97.60;;;;;;5072718;28;20391;-74
2023/03/14 07:26:39;;;;;;;23.95;16.10;;;6.30;97.40;;;;;;5042703;28;20033;-73
2023/03/14 07:29:09;;;;;;;34.15;16.48;;;6.50;97.40;;;;;;5043976;28;20048;-74
2023/03/14 07:31:36;;;;;;;25.88;14.98;;;6.50;97.10;;;;;;5054758;28;20033;-75
2023/03/14 07:34:04;;;;;;;31.40;16.85;;;6.60;97.10;;;;;;5068435;28;20040;-70
2023/03/14 07:36:48;;;;;;;28.25;16.63;;;6.60;96.20;;;;;;5038416;28;20028;-73
2023/03/14 07:39:16;;;;;;;26.98;16.40;;;6.80;96.60;;;;;;5056659;28;20986;-72
2023/03/14 07:41:49;;;;;;;24.15;16.30;;;6.90;96.00;;;;;;5056183;28;20060;-71
2023/03/14 07:44:16;;;;;;;32.75;16.77;;;7.20;95.60;;;;;;5069577;28;20427;-72
2023/03/14 07:46:43;;;;;;;24.08;16.17;;;7.40;95.60;;;;;;5052806;28;20071;-73
2023/03/14 07:49:11;;;;;;;24.90;15.95;;;7.30;94.90;;;;;;5037228;28;20067;-76
2023/03/14 07:51:38;;;;;;;31.38;18.38;;;7.60;94.90;;;;;;5050127;28;20044;-74
2023/03/14 07:54:05;;;;;;;24.77;15.73;;;7.40;94.20;;;;;;5067099;23;20515;-74
2023/03/14 07:56:32;;;;;;;32.10;16.80;;;7.40;94.60;;;;;;5056014;28;20040;-72
2023/03/14 07:59:00;;;;;;;23.90;16.45;;;7.50;94.30;;;;;;5051791;28;20029;-74
2023/03/14 08:01:28;;;;;;;28.02;16.75;;;7.80;94.00;;;;;;5052060;28;20049;-74
2023/03/14 08:03:55;;;;;;;29.10;15.18;;;8.10;93.60;;;;;;5021660;28;20414;-72
2023/03/14 08:06:23;;;;;;;24.75;14.20;;;8.20;92.60;;;;;;5054753;28;20044;-73
2023/03/14 08:08:50;;;;;;;26.23;14.35;;;8.30;91.80;;;;;;5033948;28;20049;-72
2023/03/14 08:11:18;;;;;;;20.38;13.77;;;8.30;91.80;;;;;;5052296;28;20064;-73
2023/03/14 08:13:49;;;;;;;21.92;12.90;;;8.40;91.30;;;;;;5067525;28;20068;-71
2023/03/14 08:16:17;;;;;;;16.95;11.18;;;8.20;90.50;;;;;;5037396;28;20049;-73
2023/03/14 08:18:45;;;;;;;14.25;9.73;;;8.30;87.40;;;;;;5054605;28;20045;-71
2023/03/14 08:21:12;;;;;;;13.35;10.35;;;8.30;84.70;;;;;;5051777;28;20037;-74
2023/03/14 08:23:40;;;;;;;19.33;11.88;;;8.40;85.60;;;;;;5034353;28;20075;-73
2023/03/14 08:26:13;;;;;;;24.48;11.73;;;8.60;85.80;;;;;;5050837;28;20053;-74
2023/03/14 08:28:41;;;;;;;22.63;11.30;;;8.60;84.20;;;;;;5050339;28;20048;-75
2023/03/14 08:31:08;;;;;;;21.65;13.13;;;8.60;83.80;;;;;;5036868;28;20037;-71
2023/03/14 08:33:35;;;;;;;20.15;11.45;;;8.80;84.40;;;;;;5052649;28;20059;-72
2023/03/14 08:36:03;;;;;;;17.63;12.25;;;9.00;83.30;;;;;;5037386;28;20374;-76
2023/03/14 08:38:30;;;;;;;18.45;11.30;;;9.20;83.60;;;;;;5051150;28;20041;-75
2023/03/14 08:40:59;;;;;;;25.27;12.85;;;9.30;82.20;;;;;;5051340;28;20033;-74
2023/03/14 08:43:28;;;;;;;18.95;12.18;;;9.40;82.10;;;;;;5050045;28;20044;-72
2023/03/14 08:46:00;;;;;;;19.17;11.30;;;9.50;80.70;;;;;;5051153;28;20039;-74
2023/03/14 08:48:29;;;;;;;18.75;11.00;;;9.60;79.90;;;;;;5041045;28;20412;-71
2023/03/14 08:51:03;;;;;;;15.82;10.38;;;9.90;79.30;;;;;;5051106;28;20051;-73
2023/03/14 08:53:30;;;;;;;17.73;10.02;;;10.10;78.30;;;;;;5060979;28;20050;-73
2023/03/14 08:55:58;;;;;;;14.57;10.48;;;9.90;76.20;;;;;;5052343;28;20044;-73
2023/03/14 08:58:25;;;;;;;12.80;8.95;;;9.60;76.90;;;;;;5050752;28;20033;-71
2023/03/14 09:00:52;;;;;;;13.68;9.07;;;9.80;75.80;;;;;;5057229;28;20043;-76
2023/03/14 09:03:20;;;;;;;15.55;9.50;;;10.10;75.60;;;;;;5030760;28;20052;-72
2023/03/14 09:05:47;;;;;;;17.10;10.63;;;10.30;74.20;;;;;;5076832;22;20051;-73
2023/03/14 09:08:14;;;;;;;15.70;10.88;;;10.30;75.40;;;;;;5051671;28;20047;-72
2023/03/14 09:10:42;;;;;;;16.48;10.50;;;10.40;77.50;;;;;;5035672;28;20048;-71
2023/03/14 09:13:09;;;;;;;15.20;9.98;;;10.70;77.40;;;;;;5065382;28;20422;-72
2023/03/14 09:15:37;;;;;;;15.25;9.75;;;11.00;76.00;;;;;;5053011;28;20451;-75
2023/03/14 09:18:04;;;;;;;14.50;9.88;;;11.20;76.20;;;;;;5053035;28;20059;-77
2023/03/14 09:20:31;;;;;;;15.20;9.52;;;11.30;74.80;;;;;;5065863;28;20040;-75
2023/03/14 09:22:58;;;;;;;16.23;9.15;;;11.40;74.50;;;;;;5068975;28;20392;-71
2023/03/14 09:25:25;;;;;;;14.23;9.05;;;11.60;74.30;;;;;;5051842;28;20422;-70
2023/03/14 09:27:52;;;;;;;12.40;8.55;;;11.90;73.80;;;;;;5069763;28;20051;-72
2023/03/14 09:30:20;;;;;;;15.27;8.63;;;11.50;72.50;;;;;;5069638;28;20057;-73
2023/03/14 09:32:47;;;;;;;13.35;8.05;;;11.70;73.10;;;;;;5062983;28;20041;-75
2023/03/14 09:35:14;;;;;;;12.52;8.75;;;12.00;72.40;;;;;;5060144;28;20033;-76
2023/03/14 09:37:41;;;;;;;15.07;8.43;;;12.20;72.10;;;;;;5063959;28;20450;-76
2023/03/14 09:40:13;;;;;;;14.60;8.80;;;12.30;71.50;;;;;;5057634;23;20220;-73
2023/03/14 09:42:50;;;;;;;13.30;7.88;;;12.30;71.40;;;;;;5030747;28;20076;-72
2023/03/14 09:45:40;;;;;;;10.98;7.57;;;12.10;70.50;;;;;;5041118;28;20048;-75
2023/03/14 09:48:15;;;;;;;13.13;8.25;;;11.70;71.20;;;;;;5033031;28;20151;-76
2023/03/14 09:50:46;;;;;;;13.50;8.18;;;11.80;72.50;;;;;;5031187;28;20029;-75
2023/03/14 09:53:21;;;;;;;12.18;8.52;;;11.80;71.80;;;;;;5052853;28;20067;-73
2023/03/14 09:55:52;;;;;;;12.32;8.45;;;12.30;72.50;;;;;;5014841;28;20041;-75
2023/03/14 09:58:20;;;;;;;11.80;7.97;;;12.50;72.40;;;;;;5046687;28;20057;-75
2023/03/14 10:00:52;;;;;;;11.15;8.15;;;12.90;71.90;;;;;;5048464;28;20040;-75
2023/03/14 10:03:33;;;;;;;12.70;8.05;;;13.20;71.00;;;;;;5016448;28;20077;-75
2023/03/14 10:06:00;;;;;;;11.10;6.68;;;13.10;70.60;;;;;;5050642;28;20029;-75
2023/03/14 10:08:32;;;;;;;13.40;6.68;;;13.30;67.80;;;;;;5059891;23;20124;-77
2023/03/14 10:11:02;;;;;;;11.05;7.55;;;13.50;68.60;;;;;;5015169;28;20124;-80
2023/03/14 10:13:33;;;;;;;14.75;7.45;;;13.00;68.30;;;;;;5048772;23;20059;-80
2023/03/14 10:16:04;;;;;;;11.32;7.15;;;13.00;70.30;;;;;;5068718;28;20110;-81
2023/03/14 10:18:36;;;;;;;11.15;7.43;;;13.80;68.80;;;;;;5017057;23;20123;-75
2023/03/14 10:21:28;;;;;;;13.70;6.72;;;14.20;69.00;;;;;;5052709;28;20029;-77
2023/03/14 10:24:21;;;;;;;9.15;6.35;;;14.60;67.70;;;;;;5002893;28;20412;-77
2023/03/14 10:27:01;;;;;;;11.93;6.80;;;14.70;65.10;;;;;;5034962;28;20059;-77
2023/03/14 10:29:29;;;;;;;13.60;7.15;;;14.90;66.10;;;;;;5044153;28;20706;-76
2023/03/14 10:32:01;;;;;;;11.50;6.75;;;14.60;64.20;;;;;;5053790;28;20068;-74
2023/03/14 10:34:34;;;;;;;9.57;6.18;;;14.80;63.30;;;;;;5062536;28;20041;-75
2023/03/14 10:37:25;;;;;;;10.02;5.93;;;14.60;62.70;;;;;;5046962;28;20428;-76
2023/03/14 10:39:55;;;;;;;14.57;6.30;;;14.70;60.90;;;;;;5046569;28;20033;-76
2023/03/14 10:42:29;;;;;;;13.98;7.00;;;14.90;62.70;;;;;;5044136;28;20436;-75
2023/03/14 10:45:43;;;;;;;7.00;4.95;;;15.00;61.60;;;;;;5033278;28;20373;-76
2023/03/14 10:48:23;;;;;;;6.88;5.20;;;15.10;60.10;;;;;;5037626;28;20067;-76
2023/03/14 10:51:17;;;;;;;6.55;4.80;;;15.10;60.30;;;;;;5063510;28;20064;-77
2023/03/14 10:53:47;;;;;;;9.23;5.40;;;15.10;61.10;;;;;;5045651;28;20174;-76
2023/03/14 10:56:20;;;;;;;7.90;5.03;;;14.90;59.80;;;;;;5070669;28;20036;-77
2023/03/14 10:58:51;;;;;;;7.10;4.55;;;15.20;61.70;;;;;;5041183;28;20049;-75
2023/03/14 11:01:34;;;;;;;8.63;4.90;;;15.30;59.80;;;;;;5044161;28;20139;-75
2023/03/14 11:04:22;;;;;;;5.90;4.28;;;15.60;59.00;;;;;;5029618;28;20083;-77
2023/03/14 11:06:55;;;;;;;6.65;4.10;;;15.70;57.10;;;;;;5036243;28;20045;-75
2023/03/14 11:09:46;;;;;;;7.30;4.38;;;15.60;57.70;;;;;;5063900;28;20385;-76
2023/03/14 11:12:35;;;;;;;;;;;16.10;59.50;;;;;;5049934;28;20037;-75
2023/03/14 11:15:38;;;;;;;7.75;4.45;;;16.20;56.30;;;;;;5076369;22;19920;-78
2023/03/14 11:18:05;;;;;;;9.75;4.90;;;18.20;54.40;;;;;;5076279;22;20530;-77
2023/03/14 11:20:43;;;;;;;13.90;5.35;;;20.20;50.70;;;;;;5053896;28;20183;-76
2023/03/14 11:23:30;;;;;;;7.95;5.10;;;20.30;50.60;;;;;;5065247;28;20037;-76
2023/03/14 11:26:16;;;;;;;7.80;4.57;;;19.30;51.70;;;;;;5029943;28;20080;-76
2023/03/14 11:28:50;;;;;;;6.78;4.03;;;17.90;52.20;;;;;;5025475;28;20047;-75
2023/03/14 11:31:26;;;;;;;8.00;4.25;;;17.40;53.30;;;;;;5054498;28;20095;-76
2023/03/14 11:34:14;;;;;;;6.15;3.65;;;17.70;53.60;;;;;;5052175;28;20150;-77
2023/03/14 11:37:11;;;;;;;7.90;4.32;;;17.40;53.40;;;;;;5020885;28;20397;-75
2023/03/14 11:39:40;;;;;;;6.82;3.55;;;17.40;53.00;;;;;;5051262;28;20222;-77
2023/03/14 11:42:14;;;;;;;8.73;4.07;;;17.40;51.70;;;;;;5032564;28;20102;-76
2023/03/14 11:44:47;;;;;;;6.93;3.95;;;17.90;52.10;;;;;;5051332;28;20220;-76
2023/03/14 11:47:29;;;;;;;8.68;3.97;;;17.80;53.30;;;;;;5051504;28;20377;-75
2023/03/14 11:50:33;;;;;;;6.80;3.70;;;17.60;53.40;;;;;;5018820;28;20053;-76
2023/03/14 11:53:38;;;;;;;7.30;3.55;;;17.80;52.50;;;;;;5031280;28;20066;-73
2023/03/14 11:56:41;;;;;;;9.00;3.83;;;17.90;52.40;;;;;;5027289;28;20044;-76
2023/03/14 11:59:35;;;;;;;6.20;3.72;;;18.60;51.70;;;;;;5025361;28;20044;-76
2023/03/14 12:02:19;;;;;;;6.40;3.60;;;18.60;52.10;;;;;;5026251;28;20102;-77
2023/03/14 12:04:53;;;;;;;9.25;4.50;;;18.50;51.80;;;;;;5038892;28;20119;-76
2023/03/14 12:07:29;;;;;;;10.77;4.03;;;18.60;51.30;;;;;;5019062;28;20144;-76
2023/03/14 12:09:57;;;;;;;8.05;3.75;;;18.50;52.80;;;;;;5037920;28;20130;-77
2023/03/14 12:12:27;;;;;;;8.35;3.85;;;18.80;52.40;;;;;;5039379;28;20048;-76
2023/03/14 12:14:59;;;;;;;7.78;4.18;;;19.50;51.20;;;;;;5060195;28;20381;-76
2023/03/14 12:17:43;;;;;;;5.70;3.22;;;19.30;51.30;;;;;;5036030;28;20488;-76
2023/03/14 12:20:22;;;;;;;6.80;3.53;;;19.20;50.30;;;;;;5039340;28;20052;-76
2023/03/14 12:23:02;;;;;;;5.63;3.15;;;19.20;48.70;;;;;;5033885;28;20463;-77
2023/03/14 12:25:34;;;;;;;7.50;3.40;;;20.80;46.90;;;;;;5035086;28;20484;-75
2023/03/14 12:28:19;;;;;;;6.85;3.38;;;21.90;45.20;;;;;;5065686;28;20032;-76
2023/03/14 12:30:46;;;;;;;6.28;3.22;;;22.50;44.50;;;;;;5018822;28;20053;-76
2023/03/14 12:33:26;;;;;;;6.22;3.25;;;23.50;42.60;;;;;;5031409;28;20147;-76
2023/03/14 12:36:00;;;;;;;6.85;3.28;;;23.60;42.50;;;;;;5034809;28;20044;-76
2023/03/14 12:38:58;;;;;;;6.25;3.17;;;23.10;43.10;;;;;;5052352;28;20381;-74
2023/03/14 12:41:44;;;;;;;4.70;2.63;;;22.10;43.10;;;;;;5018244;28;20081;-76
2023/03/14 12:44:30;;;;;;;11.40;3.30;;;22.10;43.20;;;;;;5037662;28;20090;-75
2023/03/14 12:47:20;;;;;;;4.97;2.85;;;21.90;43.90;;;;;;5028097;23;20071;-77
2023/03/14 12:50:13;;;;;;;5.13;2.88;;;22.00;43.90;;;;;;5069101;28;20248;-75
2023/03/14 12:53:16;;;;;;;5.47;3.03;;;21.70;44.40;;;;;;5054244;28;20044;-74
2023/03/14 12:55:58;;;;;;;5.30;2.90;;;21.60;44.10;;;;;;5055240;28;20136;-76
2023/03/14 12:59:15;;;;;;;5.88;2.65;;;22.00;43.60;;;;;;5035962;28;20048;-76